sensor_id;sensor_type;location;lat;lon;timestamp;pressure;altitude;pressure_sealevel;temperature;humidity
21730;BME280;11027;51.030;13.812;2023-05-08T00:01:34;101107.56;;;9.51;65.40
21730;BME280;11027;51.030;13.812;2023-05-08T00:03:59;101111.28;;;9.50;65.46
21730;BME280;11027;51.030;13.812;2023-05-08T00:06:24;101115.31;;;9.46;65.85
21730;BME280;11027;51.030;13.812;2023-05-08T00:08:51;101120.34;;;9.40;66.09
21730;BME280;11027;51.030;13.812;2023-05-08T00:11:16;101127.09;;;9.36;66.29
21730;BME280;11027;51.030;13.812;2023-05-08T00:13:42;101117.66;;;9.31;66.45
21730;BME280;11027;51.030;13.812;2023-05-08T00:16:07;101126.25;;;9.26;66.63
21730;BME280;11027;51.030;13.812;2023-05-08T00:18:36;101121.44;;;9.20;66.69
21730;BME280;11027;51.030;13.812;2023-05-08T00:21:03;101120.16;;;9.14;67.04
21730;BME280;11027;51.030;13.812;2023-05-08T00:23:28;101118.88;;;9.09;67.14
21730;BME280;11027;51.030;13.812;2023-05-08T00:25:53;101113.88;;;9.04;67.34
21730;BME280;11027;51.030;13.812;2023-05-08T00:28:19;101117.78;;;9.01;67.58
21730;BME280;11027;51.030;13.812;2023-05-08T00:30:44;101117.91;;;9.00;67.87
21730;BME280;11027;51.030;13.812;2023-05-08T00:33:10;101116.34;;;8.97;67.86
21730;BME280;11027;51.030;13.812;2023-05-08T00:35:35;101113.63;;;8.97;67.91
21730;BME280;11027;51.030;13.812;2023-05-08T00:38:00;101110.06;;;8.97;68.20
21730;BME280;11027;51.030;13.812;2023-05-08T00:40:26;101107.47;;;8.95;68.27
21730;BME280;11027;51.030;13.812;2023-05-08T00:42:51;101106.78;;;8.93;68.28
21730;BME280;11027;51.030;13.812;2023-05-08T00:45:17;101106.91;;;8.92;68.44
21730;BME280;11027;51.030;13.812;2023-05-08T00:47:42;101106.34;;;8.88;68.52
21730;BME280;11027;51.030;13.812;2023-05-08T00:50:08;101110.66;;;8.81;68.76
21730;BME280;11027;51.030;13.812;2023-05-08T00:52:34;101107.94;;;8.81;68.60
21730;BME280;11027;51.030;13.812;2023-05-08T00:55:01;101111.66;;;8.80;68.75
21730;BME280;11027;51.030;13.812;2023-05-08T00:57:28;101110.94;;;8.78;68.88
21730;BME280;11027;51.030;13.812;2023-05-08T00:59:54;101116.69;;;8.75;69.16
21730;BME280;11027;51.030;13.812;2023-05-08T01:02:19;101116.13;;;8.71;69.17
21730;BME280;11027;51.030;13.812;2023-05-08T01:04:45;101115.53;;;8.68;69.35
21730;BME280;11027;51.030;13.812;2023-05-08T01:07:12;101128.41;;;8.66;69.34
21730;BME280;11027;51.030;13.812;2023-05-08T01:09:37;101121.28;;;8.65;69.47
21730;BME280;11027;51.030;13.812;2023-05-08T01:12:06;101120.72;;;8.61;69.47
21730;BME280;11027;51.030;13.812;2023-05-08T01:15:23;101117.72;;;8.54;69.46
21730;BME280;11027;51.030;13.812;2023-05-08T01:20:27;101108.13;;;8.50;69.56
21730;BME280;11027;51.030;13.812;2023-05-08T01:31:43;101120.56;;;8.43;70.28
21730;BME280;11027;51.030;13.812;2023-05-08T01:34:20;101112.97;;;8.37;70.43
21730;BME280;11027;51.030;13.812;2023-05-08T01:36:52;101120.41;;;8.35;70.44
21730;BME280;11027;51.030;13.812;2023-05-08T01:39:31;101128.09;;;8.30;70.68
21730;BME280;11027;51.030;13.812;2023-05-08T01:42:07;101133.97;;;8.25;70.75
21730;BME280;11027;51.030;13.812;2023-05-08T01:44:44;101136.09;;;8.21;70.87
21730;BME280;11027;51.030;13.812;2023-05-08T01:47:13;101132.09;;;8.16;70.99
21730;BME280;11027;51.030;13.812;2023-05-08T01:49:48;101137.81;;;8.13;71.14
21730;BME280;11027;51.030;13.812;2023-05-08T01:52:37;101135.53;;;8.08;71.30
21730;BME280;11027;51.030;13.812;2023-05-08T01:55:09;101133.09;;;8.05;71.30
21730;BME280;11027;51.030;13.812;2023-05-08T01:57:39;101131.53;;;8.02;71.10
21730;BME280;11027;51.030;13.812;2023-05-08T02:00:07;101137.22;;;7.99;71.58
21730;BME280;11027;51.030;13.812;2023-05-08T02:02:33;101132.94;;;7.97;71.61
21730;BME280;11027;51.030;13.812;2023-05-08T02:05:01;101132.94;;;7.97;71.73
21730;BME280;11027;51.030;13.812;2023-05-08T02:07:28;101127.94;;;7.92;71.73
21730;BME280;11027;51.030;13.812;2023-05-08T02:09:55;101133.50;;;7.91;71.97
21730;BME280;11027;51.030;13.812;2023-05-08T02:12:21;101124.63;;;7.89;72.10
21730;BME280;11027;51.030;13.812;2023-05-08T02:14:51;101129.34;;;7.87;72.04
21730;BME280;11027;51.030;13.812;2023-05-08T02:17:18;101126.91;;;7.84;71.82
21730;BME280;11027;51.030;13.812;2023-05-08T02:19:45;101126.91;;;7.84;71.98
21730;BME280;11027;51.030;13.812;2023-05-08T02:22:12;101130.16;;;7.77;71.85
21730;BME280;11027;51.030;13.812;2023-05-08T02:24:38;101130.47;;;7.74;71.97
21730;BME280;11027;51.030;13.812;2023-05-08T02:27:05;101132.44;;;7.72;72.05
21730;BME280;11027;51.030;13.812;2023-05-08T02:29:32;101142.28;;;7.73;72.13
21730;BME280;11027;51.030;13.812;2023-05-08T02:32:00;101124.59;;;7.69;72.08
21730;BME280;11027;51.030;13.812;2023-05-08T02:34:26;101139.41;;;7.65;72.05
21730;BME280;11027;51.030;13.812;2023-05-08T02:36:52;101139.97;;;7.59;72.03
21730;BME280;11027;51.030;13.812;2023-05-08T02:39:19;101141.09;;;7.56;72.09
21730;BME280;11027;51.030;13.812;2023-05-08T02:41:46;101141.97;;;7.57;72.02
21730;BME280;11027;51.030;13.812;2023-05-08T02:44:11;101134.84;;;7.56;71.98
21730;BME280;11027;51.030;13.812;2023-05-08T02:46:45;101143.09;;;7.54;71.85
21730;BME280;11027;51.030;13.812;2023-05-08T02:49:21;101142.25;;;7.54;71.75
21730;BME280;11027;51.030;13.812;2023-05-08T02:51:53;101143.09;;;7.54;71.74
21730;BME280;11027;51.030;13.812;2023-05-08T02:54:26;101140.53;;;7.53;71.84
21730;BME280;11027;51.030;13.812;2023-05-08T02:57:09;101146.22;;;7.50;71.86
21730;BME280;11027;51.030;13.812;2023-05-08T02:59:42;101137.38;;;7.48;71.88
21730;BME280;11027;51.030;13.812;2023-05-08T03:02:29;101143.06;;;7.45;71.83
21730;BME280;11027;51.030;13.812;2023-05-08T03:04:59;101148.78;;;7.41;71.91
21730;BME280;11027;51.030;13.812;2023-05-08T03:07:27;101154.44;;;7.38;71.80
21730;BME280;11027;51.030;13.812;2023-05-08T03:10:00;101160.16;;;7.35;71.96
21730;BME280;11027;51.030;13.812;2023-05-08T03:12:27;101156.72;;;7.33;71.97
21730;BME280;11027;51.030;13.812;2023-05-08T03:15:11;101159.81;;;7.29;72.01
21730;BME280;11027;51.030;13.812;2023-05-08T03:17:40;101150.25;;;7.25;72.07
21730;BME280;11027;51.030;13.812;2023-05-08T03:20:11;101160.34;;;7.22;72.21
21730;BME280;11027;51.030;13.812;2023-05-08T03:22:40;101154.94;;;7.22;72.16
21730;BME280;11027;51.030;13.812;2023-05-08T03:25:08;101157.53;;;7.24;72.17
21730;BME280;11027;51.030;13.812;2023-05-08T03:27:35;101151.13;;;7.25;72.02
21730;BME280;11027;51.030;13.812;2023-05-08T03:30:03;101155.53;;;7.26;72.14
21730;BME280;11027;51.030;13.812;2023-05-08T03:32:30;101152.09;;;7.24;72.21
21730;BME280;11027;51.030;13.812;2023-05-08T03:34:58;101150.41;;;7.23;72.40
21730;BME280;11027;51.030;13.812;2023-05-08T03:37:26;101161.25;;;7.23;72.38
21730;BME280;11027;51.030;13.812;2023-05-08T03:39:51;101157.78;;;7.21;72.48
21730;BME280;11027;51.030;13.812;2023-05-08T03:42:16;101154.09;;;7.22;72.52
21730;BME280;11027;51.030;13.812;2023-05-08T03:44:48;101157.53;;;7.24;72.34
21730;BME280;11027;51.030;13.812;2023-05-08T03:47:16;101161.25;;;7.23;72.19
21730;BME280;11027;51.030;13.812;2023-05-08T03:49:41;101166.66;;;7.23;72.33
21730;BME280;11027;51.030;13.812;2023-05-08T03:52:07;101161.50;;;7.20;72.38
21730;BME280;11027;51.030;13.812;2023-05-08T03:54:32;101156.31;;;7.17;72.28
21730;BME280;11027;51.030;13.812;2023-05-08T03:56:57;101167.47;;;7.14;72.35
21730;BME280;11027;51.030;13.812;2023-05-08T04:04:32;101168.91;;;7.18;72.48
21730;BME280;11027;51.030;13.812;2023-05-08T04:07:27;101176.31;;;7.16;72.56
21730;BME280;11027;51.030;13.812;2023-05-08T04:10:08;101178.00;;;7.17;72.61
21730;BME280;11027;51.030;13.812;2023-05-08T04:12:56;101178.91;;;7.17;72.52
21730;BME280;11027;51.030;13.812;2023-05-08T04:15:28;101182.31;;;7.19;72.48
21730;BME280;11027;51.030;13.812;2023-05-08T04:17:56;101179.22;;;7.24;72.09
21730;BME280;11027;51.030;13.812;2023-05-08T04:20:25;101179.81;;;7.28;72.34
21730;BME280;11027;51.030;13.812;2023-05-08T04:22:53;101185.81;;;7.31;72.17
21730;BME280;11027;51.030;13.812;2023-05-08T04:25:18;101182.09;;;7.32;72.33
21730;BME280;11027;51.030;13.812;2023-05-08T04:27:45;101181.84;;;7.35;72.07
21730;BME280;11027;51.030;13.812;2023-05-08T04:30:12;101188.00;;;7.37;72.06
21730;BME280;11027;51.030;13.812;2023-05-08T04:32:38;101188.72;;;7.39;72.08
21730;BME280;11027;51.030;13.812;2023-05-08T04:35:04;101176.84;;;7.40;71.87
21730;BME280;11027;51.030;13.812;2023-05-08T04:37:30;101185.72;;;7.43;71.73
21730;BME280;11027;51.030;13.812;2023-05-08T04:39:56;101197.56;;;7.41;71.97
21730;BME280;11027;51.030;13.812;2023-05-08T04:42:21;101198.56;;;7.40;72.02
21730;BME280;11027;51.030;13.812;2023-05-08T04:44:48;101203.84;;;7.42;71.98
21730;BME280;11027;51.030;13.812;2023-05-08T04:47:13;101200.13;;;7.43;71.91
21730;BME280;11027;51.030;13.812;2023-05-08T04:49:39;101204.44;;;7.46;71.78
21730;BME280;11027;51.030;13.812;2023-05-08T04:52:04;101206.16;;;7.47;71.70
21730;BME280;11027;51.030;13.812;2023-05-08T04:54:30;101205.16;;;7.48;71.65
21730;BME280;11027;51.030;13.812;2023-05-08T04:56:56;101212.75;;;7.54;71.47
21730;BME280;11027;51.030;13.812;2023-05-08T04:59:21;101213.06;;;7.60;71.39
21730;BME280;11027;51.030;13.812;2023-05-08T05:01:46;101211.66;;;7.66;71.24
21730;BME280;11027;51.030;13.812;2023-05-08T05:04:12;101214.97;;;7.70;70.93
21730;BME280;11027;51.030;13.812;2023-05-08T05:06:37;101211.13;;;7.72;70.86
21730;BME280;11027;51.030;13.812;2023-05-08T05:09:02;101218.00;;;7.76;70.75
21730;BME280;11027;51.030;13.812;2023-05-08T05:11:29;101215.16;;;7.78;70.79
21730;BME280;11027;51.030;13.812;2023-05-08T05:13:54;101217.44;;;7.82;70.72
21730;BME280;11027;51.030;13.812;2023-05-08T05:16:19;101215.19;;;7.88;70.30
21730;BME280;11027;51.030;13.812;2023-05-08T05:18:45;101218.88;;;7.87;70.03
21730;BME280;11027;51.030;13.812;2023-05-08T05:21:10;101218.03;;;7.86;70.10
21730;BME280;11027;51.030;13.812;2023-05-08T05:23:35;101216.88;;;7.89;69.97
21730;BME280;11027;51.030;13.812;2023-05-08T05:26:01;101211.03;;;7.93;70.05
21730;BME280;11027;51.030;13.812;2023-05-08T05:28:26;101209.75;;;7.97;69.85
21730;BME280;11027;51.030;13.812;2023-05-08T05:30:51;101209.38;;;8.02;69.74
21730;BME280;11027;51.030;13.812;2023-05-08T05:33:17;101209.78;;;8.07;69.43
21730;BME280;11027;51.030;13.812;2023-05-08T05:35:42;101213.22;;;8.09;69.24
21730;BME280;11027;51.030;13.812;2023-05-08T05:38:08;101216.66;;;8.11;69.02
21730;BME280;11027;51.030;13.812;2023-05-08T05:40:33;101208.25;;;8.14;68.91
21730;BME280;11027;51.030;13.812;2023-05-08T05:42:58;101215.38;;;8.15;68.74
21730;BME280;11027;51.030;13.812;2023-05-08T05:45:23;101216.09;;;8.17;68.48
21730;BME280;11027;51.030;13.812;2023-05-08T05:47:49;101215.13;;;8.18;68.28
21730;BME280;11027;51.030;13.812;2023-05-08T05:50:15;101214.09;;;8.19;68.25
21730;BME280;11027;51.030;13.812;2023-05-08T05:52:41;101217.53;;;8.21;68.17
21730;BME280;11027;51.030;13.812;2023-05-08T05:55:07;101221.69;;;8.26;68.00
21730;BME280;11027;51.030;13.812;2023-05-08T05:57:32;101215.28;;;8.27;68.09
21730;BME280;11027;51.030;13.812;2023-05-08T05:59:57;101218.72;;;8.29;67.87
21730;BME280;11027;51.030;13.812;2023-05-08T06:02:24;101213.88;;;8.32;67.92
21730;BME280;11027;51.030;13.812;2023-05-08T06:04:50;101223.59;;;8.35;67.73
21730;BME280;11027;51.030;13.812;2023-05-08T06:07:16;101223.28;;;8.38;67.49
21730;BME280;11027;51.030;13.812;2023-05-08T06:09:42;101219.31;;;8.42;67.34
21730;BME280;11027;51.030;13.812;2023-05-08T06:12:07;101226.19;;;8.46;67.30
21730;BME280;11027;51.030;13.812;2023-05-08T06:14:33;101227.63;;;8.50;67.25
21730;BME280;11027;51.030;13.812;2023-05-08T06:16:58;101223.66;;;8.54;67.18
21730;BME280;11027;51.030;13.812;2023-05-08T06:19:24;101216.22;;;8.56;67.16
21730;BME280;11027;51.030;13.812;2023-05-08T06:21:50;101221.09;;;8.63;67.12
21730;BME280;11027;51.030;13.812;2023-05-08T06:24:15;101218.91;;;8.66;67.01
21730;BME280;11027;51.030;13.812;2023-05-08T06:26:40;101211.34;;;8.70;67.05
21730;BME280;11027;51.030;13.812;2023-05-08T06:29:06;101217.34;;;8.73;66.56
21730;BME280;11027;51.030;13.812;2023-05-08T06:31:31;101220.78;;;8.75;66.15
21730;BME280;11027;51.030;13.812;2023-05-08T06:33:56;101217.94;;;8.77;65.61
21730;BME280;11027;51.030;13.812;2023-05-08T06:36:22;101210.06;;;8.84;65.71
21730;BME280;11027;51.030;13.812;2023-05-08T06:38:47;101214.06;;;8.89;65.73
21730;BME280;11027;51.030;13.812;2023-05-08T06:41:12;101216.47;;;8.92;65.41
21730;BME280;11027;51.030;13.812;2023-05-08T06:43:37;101223.34;;;8.96;65.35
21730;BME280;11027;51.030;13.812;2023-05-08T06:46:03;101223.78;;;9.01;65.43
21730;BME280;11027;51.030;13.812;2023-05-08T06:48:28;101218.75;;;9.07;65.35
21730;BME280;11027;51.030;13.812;2023-05-08T06:50:54;101222.88;;;9.11;65.26
21730;BME280;11027;51.030;13.812;2023-05-08T06:53:19;101218.72;;;9.16;65.29
21730;BME280;11027;51.030;13.812;2023-05-08T06:55:45;101217.59;;;9.19;65.14
21730;BME280;11027;51.030;13.812;2023-05-08T06:58:10;101215.28;;;9.24;65.38
21730;BME280;11027;51.030;13.812;2023-05-08T07:00:36;101212.13;;;9.29;65.33
21730;BME280;11027;51.030;13.812;2023-05-08T07:03:01;101213.41;;;9.34;65.17
21730;BME280;11027;51.030;13.812;2023-05-08T07:05:26;101213.84;;;9.39;65.17
21730;BME280;11027;51.030;13.812;2023-05-08T07:07:52;101215.25;;;9.44;65.21
21730;BME280;11027;51.030;13.812;2023-05-08T07:10:19;101211.22;;;9.48;65.09
21730;BME280;11027;51.030;13.812;2023-05-08T07:12:47;101213.50;;;9.52;64.78
21730;BME280;11027;51.030;13.812;2023-05-08T07:15:12;101216.66;;;9.57;64.61
21730;BME280;11027;51.030;13.812;2023-05-08T07:17:37;101213.47;;;9.62;64.65
21730;BME280;11027;51.030;13.812;2023-05-08T07:20:03;101206.72;;;9.66;64.52
21730;BME280;11027;51.030;13.812;2023-05-08T07:22:29;101205.28;;;9.72;64.46
21730;BME280;11027;51.030;13.812;2023-05-08T07:24:54;101209.22;;;9.77;64.10
21730;BME280;11027;51.030;13.812;2023-05-08T07:27:20;101205.38;;;9.80;63.41
21730;BME280;11027;51.030;13.812;2023-05-08T07:29:45;101210.38;;;9.85;63.16
21730;BME280;11027;51.030;13.812;2023-05-08T07:32:11;101208.75;;;9.92;62.61
21730;BME280;11027;51.030;13.812;2023-05-08T07:34:36;101207.13;;;9.99;62.52
21730;BME280;11027;51.030;13.812;2023-05-08T07:37:01;101209.56;;;10.02;62.63
21730;BME280;11027;51.030;13.812;2023-05-08T07:39:27;101208.25;;;10.06;62.39
21730;BME280;11027;51.030;13.812;2023-05-08T07:41:52;101213.94;;;10.13;62.42
21730;BME280;11027;51.030;13.812;2023-05-08T07:44:18;101211.63;;;10.18;62.50
21730;BME280;11027;51.030;13.812;2023-05-08T07:46:43;101216.28;;;10.26;62.60
21730;BME280;11027;51.030;13.812;2023-05-08T07:49:08;101215.72;;;10.32;62.45
21730;BME280;11027;51.030;13.812;2023-05-08T07:51:34;101207.09;;;10.36;62.59
21730;BME280;11027;51.030;13.812;2023-05-08T07:53:59;101216.19;;;10.45;61.80
21730;BME280;11027;51.030;13.812;2023-05-08T07:56:25;101206.41;;;10.52;61.42
21730;BME280;11027;51.030;13.812;2023-05-08T07:58:51;101208.50;;;10.58;60.93
21730;BME280;11027;51.030;13.812;2023-05-08T08:01:16;101205.47;;;10.61;60.61
21730;BME280;11027;51.030;13.812;2023-05-08T08:03:43;101208.88;;;10.64;60.12
21730;BME280;11027;51.030;13.812;2023-05-08T08:06:08;101203.13;;;10.67;59.84
21730;BME280;11027;51.030;13.812;2023-05-08T08:08:34;101209.81;;;10.72;59.33
21730;BME280;11027;51.030;13.812;2023-05-08T08:10:59;101212.47;;;10.82;59.03
21730;BME280;11027;51.030;13.812;2023-05-08T08:13:24;101200.94;;;10.88;59.23
21730;BME280;11027;51.030;13.812;2023-05-08T08:15:50;101202.72;;;10.97;59.15
21730;BME280;11027;51.030;13.812;2023-05-08T08:18:16;101193.75;;;11.05;58.45
21730;BME280;11027;51.030;13.812;2023-05-08T08:20:41;101200.13;;;11.14;58.48
21730;BME280;11027;51.030;13.812;2023-05-08T08:23:06;101193.03;;;11.21;58.11
21730;BME280;11027;51.030;13.812;2023-05-08T08:25:31;101193.91;;;11.30;57.70
21730;BME280;11027;51.030;13.812;2023-05-08T08:27:57;101198.59;;;11.37;57.18
21730;BME280;11027;51.030;13.812;2023-05-08T08:30:22;101195.22;;;11.44;57.60
21730;BME280;11027;51.030;13.812;2023-05-08T08:32:47;101185.69;;;11.48;57.54
21730;BME280;11027;51.030;13.812;2023-05-08T08:35:13;101185.03;;;11.54;56.94
21730;BME280;11027;51.030;13.812;2023-05-08T08:37:38;101187.97;;;11.60;57.08
21730;BME280;11027;51.030;13.812;2023-05-08T08:40:04;101183.72;;;11.66;56.77
21730;BME280;11027;51.030;13.812;2023-05-08T08:42:29;101192.25;;;11.71;56.15
21730;BME280;11027;51.030;13.812;2023-05-08T08:44:55;101193.66;;;11.75;55.94
21730;BME280;11027;51.030;13.812;2023-05-08T08:47:27;101192.97;;;11.73;55.05
21730;BME280;11027;51.030;13.812;2023-05-08T08:49:54;101183.06;;;11.72;54.12
21730;BME280;11027;51.030;13.812;2023-05-08T08:52:53;101191.94;;;11.74;54.11
21730;BME280;11027;51.030;13.812;2023-05-08T08:55:21;101189.56;;;11.79;53.99
21730;BME280;11027;51.030;13.812;2023-05-08T08:58:10;101186.28;;;11.94;54.11
21730;BME280;11027;51.030;13.812;2023-05-08T09:00:38;101184.06;;;12.06;54.22
21730;BME280;11027;51.030;13.812;2023-05-08T09:03:04;101183.63;;;12.18;54.48
21730;BME280;11027;51.030;13.812;2023-05-08T09:05:31;101188.06;;;12.28;53.67
21730;BME280;11027;51.030;13.812;2023-05-08T09:07:58;101183.66;;;12.35;53.32
21730;BME280;11027;51.030;13.812;2023-05-08T09:10:23;101180.94;;;12.43;53.24
21730;BME280;11027;51.030;13.812;2023-05-08T09:12:49;101177.53;;;12.49;52.32
21730;BME280;11027;51.030;13.812;2023-05-08T09:15:14;101182.84;;;12.59;52.75
21730;BME280;11027;51.030;13.812;2023-05-08T09:17:40;101174.50;;;12.69;51.86
21730;BME280;11027;51.030;13.812;2023-05-08T09:20:06;101161.66;;;12.77;52.25
21730;BME280;11027;51.030;13.812;2023-05-08T09:22:31;101167.13;;;12.86;51.90
21730;BME280;11027;51.030;13.812;2023-05-08T09:24:59;101170.91;;;12.93;51.30
21730;BME280;11027;51.030;13.812;2023-05-08T09:27:27;101169.34;;;12.98;51.62
21730;BME280;11027;51.030;13.812;2023-05-08T09:30:10;101165.91;;;13.05;51.22
21730;BME280;11027;51.030;13.812;2023-05-08T09:32:38;101167.63;;;13.14;51.41
21730;BME280;11027;51.030;13.812;2023-05-08T09:35:05;101162.31;;;13.20;51.22
21730;BME280;11027;51.030;13.812;2023-05-08T09:37:31;101165.94;;;13.29;51.25
21730;BME280;11027;51.030;13.812;2023-05-08T09:40:16;101147.09;;;13.34;51.10
21730;BME280;11027;51.030;13.812;2023-05-08T09:42:41;101151.69;;;13.42;50.59
21730;BME280;11027;51.030;13.812;2023-05-08T09:45:07;101147.75;;;13.45;49.91
21730;BME280;11027;51.030;13.812;2023-05-08T09:47:33;101144.00;;;13.46;49.68
21730;BME280;11027;51.030;13.812;2023-05-08T09:52:31;101152.31;;;13.60;49.46
21730;BME280;11027;51.030;13.812;2023-05-08T09:55:06;101145.78;;;13.70;49.55
21730;BME280;11027;51.030;13.812;2023-05-08T09:57:34;101144.38;;;13.82;49.85
21730;BME280;11027;51.030;13.812;2023-05-08T10:00:10;101152.66;;;13.97;49.77
21730;BME280;11027;51.030;13.812;2023-05-08T10:02:41;101141.38;;;14.00;49.09
21730;BME280;11027;51.030;13.812;2023-05-08T10:05:22;101138.19;;;14.11;48.78
21730;BME280;11027;51.030;13.812;2023-05-08T10:07:48;101140.53;;;14.23;49.14
21730;BME280;11027;51.030;13.812;2023-05-08T10:10:27;101144.19;;;14.38;49.66
21730;BME280;11027;51.030;13.812;2023-05-08T10:12:53;101141.44;;;14.46;49.43
21730;BME280;11027;51.030;13.812;2023-05-08T10:15:22;101147.88;;;14.53;49.20
21730;BME280;11027;51.030;13.812;2023-05-08T10:18:02;101138.47;;;14.48;48.02
21730;BME280;11027;51.030;13.812;2023-05-08T10:20:29;101136.28;;;14.43;48.47
21730;BME280;11027;51.030;13.812;2023-05-08T10:22:56;101139.59;;;14.38;48.22
21730;BME280;11027;51.030;13.812;2023-05-08T10:25:22;101145.41;;;14.35;47.94
21730;BME280;11027;51.030;13.812;2023-05-08T10:30:37;101138.97;;;14.28;48.26
21730;BME280;11027;51.030;13.812;2023-05-08T10:33:08;101127.13;;;14.28;48.15
21730;BME280;11027;51.030;13.812;2023-05-08T10:35:35;101126.41;;;14.34;48.52
21730;BME280;11027;51.030;13.812;2023-05-08T10:38:02;101130.03;;;14.34;48.18
21730;BME280;11027;51.030;13.812;2023-05-08T10:40:27;101125.00;;;14.38;48.19
21730;BME280;11027;51.030;13.812;2023-05-08T10:42:53;101121.19;;;14.47;48.27
21730;BME280;11027;51.030;13.812;2023-05-08T10:45:19;101111.50;;;14.59;48.21
21730;BME280;11027;51.030;13.812;2023-05-08T10:48:04;101105.97;;;14.68;48.28
21730;BME280;11027;51.030;13.812;2023-05-08T10:50:55;101109.69;;;14.75;47.86
21730;BME280;11027;51.030;13.812;2023-05-08T10:56:04;101106.88;;;14.98;48.54
21730;BME280;11027;51.030;13.812;2023-05-08T10:58:30;101109.66;;;15.13;48.45
21730;BME280;11027;51.030;13.812;2023-05-08T11:03:26;101100.19;;;15.30;47.32
21730;BME280;11027;51.030;13.812;2023-05-08T11:05:52;101104.16;;;15.43;48.04
21730;BME280;11027;51.030;13.812;2023-05-08T11:08:20;101096.13;;;15.56;48.22
21730;BME280;11027;51.030;13.812;2023-05-08T11:19:26;101080.44;;;16.23;46.60
21730;BME280;11027;51.030;13.812;2023-05-08T11:22:11;101079.13;;;16.40;45.87
21730;BME280;11027;51.030;13.812;2023-05-08T11:24:38;101084.75;;;16.53;46.12
21730;BME280;11027;51.030;13.812;2023-05-08T11:27:04;101077.44;;;16.60;45.57
21730;BME280;11027;51.030;13.812;2023-05-08T11:29:29;101073.00;;;16.66;44.70
21730;BME280;11027;51.030;13.812;2023-05-08T11:31:55;101071.78;;;16.69;43.85
21730;BME280;11027;51.030;13.812;2023-05-08T11:37:21;101070.34;;;16.73;42.94
21730;BME280;11027;51.030;13.812;2023-05-08T11:39:47;101067.81;;;16.78;43.10
21730;BME280;11027;51.030;13.812;2023-05-08T11:45:11;101064.50;;;17.11;43.21
21730;BME280;11027;51.030;13.812;2023-05-08T11:47:42;101053.56;;;17.24;41.90
21730;BME280;11027;51.030;13.812;2023-05-08T11:50:09;101051.53;;;17.39;41.48
21730;BME280;11027;51.030;13.812;2023-05-08T11:52:35;101052.22;;;17.55;41.02
21730;BME280;11027;51.030;13.812;2023-05-08T11:55:03;101045.75;;;17.76;41.30
21730;BME280;11027;51.030;13.812;2023-05-08T11:57:29;101047.97;;;17.94;40.41
21730;BME280;11027;51.030;13.812;2023-05-08T11:59:55;101051.16;;;18.04;38.31
21730;BME280;11027;51.030;13.812;2023-05-08T12:02:36;101046.72;;;18.16;37.78
21730;BME280;11027;51.030;13.812;2023-05-08T12:05:02;101039.09;;;18.32;38.36
21730;BME280;11027;51.030;13.812;2023-05-08T12:07:27;101038.69;;;18.35;37.57
21730;BME280;11027;51.030;13.812;2023-05-08T12:09:52;101033.56;;;18.32;37.27
21730;BME280;11027;51.030;13.812;2023-05-08T12:12:18;101034.22;;;18.34;37.85
21730;BME280;11027;51.030;13.812;2023-05-08T12:14:43;101032.97;;;18.43;38.37
21730;BME280;11027;51.030;13.812;2023-05-08T12:17:08;101042.94;;;18.51;38.34
21730;BME280;11027;51.030;13.812;2023-05-08T12:19:34;101049.72;;;18.62;37.53
21730;BME280;11027;51.030;13.812;2023-05-08T12:21:59;101043.78;;;18.78;38.44
21730;BME280;11027;51.030;13.812;2023-05-08T12:24:24;101040.19;;;18.91;38.98
21730;BME280;11027;51.030;13.812;2023-05-08T12:26:53;101027.41;;;18.96;39.40
21730;BME280;11027;51.030;13.812;2023-05-08T12:29:21;101022.28;;;19.20;39.65
21730;BME280;11027;51.030;13.812;2023-05-08T12:31:47;101022.84;;;19.42;36.73
21730;BME280;11027;51.030;13.812;2023-05-08T12:34:12;101016.97;;;19.70;35.17
21730;BME280;11027;51.030;13.812;2023-05-08T12:36:38;101020.66;;;20.03;33.31
21730;BME280;11027;51.030;13.812;2023-05-08T12:39:14;101019.22;;;20.25;31.26
21730;BME280;11027;51.030;13.812;2023-05-08T12:41:50;101004.16;;;20.46;30.92
21730;BME280;11027;51.030;13.812;2023-05-08T12:44:17;101008.56;;;20.54;29.22
21730;BME280;11027;51.030;13.812;2023-05-08T12:46:48;101007.72;;;20.53;29.09
21730;BME280;11027;51.030;13.812;2023-05-08T12:49:22;101009.78;;;20.65;29.83
21730;BME280;11027;51.030;13.812;2023-05-08T12:51:47;100998.47;;;20.66;28.66
21730;BME280;11027;51.030;13.812;2023-05-08T12:54:12;101007.97;;;20.77;27.84
21730;BME280;11027;51.030;13.812;2023-05-08T12:56:42;101005.66;;;20.92;27.87
21730;BME280;11027;51.030;13.812;2023-05-08T12:59:08;101005.84;;;21.16;28.06
21730;BME280;11027;51.030;13.812;2023-05-08T13:01:33;101002.84;;;21.36;27.38
21730;BME280;11027;51.030;13.812;2023-05-08T13:03:59;100996.91;;;21.51;26.62
21730;BME280;11027;51.030;13.812;2023-05-08T13:06:26;100998.03;;;21.80;26.77
21730;BME280;11027;51.030;13.812;2023-05-08T13:08:53;100988.56;;;22.53;27.53
21730;BME280;11027;51.030;13.812;2023-05-08T13:11:31;100998.03;;;23.52;26.59
21730;BME280;11027;51.030;13.812;2023-05-08T13:13:57;100995.13;;;24.33;25.11
21730;BME280;11027;51.030;13.812;2023-05-08T13:16:23;100989.31;;;25.24;25.30
21730;BME280;11027;51.030;13.812;2023-05-08T13:18:48;100989.19;;;26.72;24.60
21730;BME280;11027;51.030;13.812;2023-05-08T13:21:13;100984.81;;;28.53;23.21
21730;BME280;11027;51.030;13.812;2023-05-08T13:23:38;100971.75;;;30.34;22.70
21730;BME280;11027;51.030;13.812;2023-05-08T13:26:04;100970.50;;;31.90;20.99
21730;BME280;11027;51.030;13.812;2023-05-08T13:28:30;100963.25;;;33.43;19.35
21730;BME280;11027;51.030;13.812;2023-05-08T13:30:55;100962.34;;;34.65;18.34